sensor_id;sensor_type;location;lat;lon;timestamp;P1;durP1;ratioP1;P2;durP2;ratioP2
13969;SDS011;7057;49.984;8.404;2022-07-25T00:01:25;6.80;;;5.57;;
13969;SDS011;7057;49.984;8.404;2022-07-25T00:03:52;7.57;;;5.83;;
13969;SDS011;7057;49.984;8.404;2022-07-25T00:06:19;7.40;;;6.30;;
13969;SDS011;7057;49.984;8.404;2022-07-25T00:08:48;6.50;;;5.90;;
13969;SDS011;7057;49.984;8.404;2022-07-25T00:11:15;6.47;;;5.67;;
13969;SDS011;7057;49.984;8.404;2022-07-25T00:13:42;7.87;;;5.97;;
13969;SDS011;7057;49.984;8.404;2022-07-25T00:16:09;6.90;;;6.23;;
13969;SDS011;7057;49.984;8.404;2022-07-25T00:18:36;7.93;;;6.27;;
13969;SDS011;7057;49.984;8.404;2022-07-25T00:21:03;6.30;;;5.70;;
13969;SDS011;7057;49.984;8.404;2022-07-25T00:23:31;5.93;;;5.17;;
13969;SDS011;7057;49.984;8.404;2022-07-25T00:25:59;6.50;;;5.40;;
13969;SDS011;7057;49.984;8.404;2022-07-25T00:28:26;6.53;;;5.87;;
13969;SDS011;7057;49.984;8.404;2022-07-25T00:30:53;6.17;;;5.43;;
13969;SDS011;7057;49.984;8.404;2022-07-25T00:33:20;7.57;;;6.10;;
13969;SDS011;7057;49.984;8.404;2022-07-25T00:35:48;6.47;;;5.87;;
13969;SDS011;7057;49.984;8.404;2022-07-25T00:38:15;6.63;;;6.03;;
13969;SDS011;7057;49.984;8.404;2022-07-25T00:40:42;6.57;;;5.93;;
13969;SDS011;7057;49.984;8.404;2022-07-25T00:43:11;7.63;;;6.40;;
13969;SDS011;7057;49.984;8.404;2022-07-25T00:45:38;8.57;;;5.77;;
13969;SDS011;7057;49.984;8.404;2022-07-25T00:48:05;6.87;;;5.43;;
13969;SDS011;7057;49.984;8.404;2022-07-25T00:50:33;7.90;;;6.17;;
13969;SDS011;7057;49.984;8.404;2022-07-25T00:53:01;6.50;;;5.90;;
13969;SDS011;7057;49.984;8.404;2022-07-25T00:55:28;5.93;;;5.30;;
13969;SDS011;7057;49.984;8.404;2022-07-25T00:57:56;8.00;;;6.50;;
13969;SDS011;7057;49.984;8.404;2022-07-25T01:00:25;7.00;;;6.30;;
13969;SDS011;7057;49.984;8.404;2022-07-25T01:02:52;6.20;;;5.63;;
13969;SDS011;7057;49.984;8.404;2022-07-25T01:05:19;7.80;;;6.10;;
13969;SDS011;7057;49.984;8.404;2022-07-25T01:07:47;7.13;;;6.37;;
13969;SDS011;7057;49.984;8.404;2022-07-25T01:10:14;9.77;;;6.00;;
13969;SDS011;7057;49.984;8.404;2022-07-25T01:12:46;7.73;;;6.70;;
13969;SDS011;7057;49.984;8.404;2022-07-25T01:15:14;7.40;;;6.10;;
13969;SDS011;7057;49.984;8.404;2022-07-25T01:17:43;6.80;;;6.00;;
13969;SDS011;7057;49.984;8.404;2022-07-25T01:20:13;8.13;;;5.87;;
13969;SDS011;7057;49.984;8.404;2022-07-25T01:22:41;7.83;;;6.13;;
13969;SDS011;7057;49.984;8.404;2022-07-25T01:25:08;7.03;;;6.23;;
13969;SDS011;7057;49.984;8.404;2022-07-25T01:27:35;6.63;;;5.80;;
13969;SDS011;7057;49.984;8.404;2022-07-25T01:30:04;6.67;;;5.67;;
13969;SDS011;7057;49.984;8.404;2022-07-25T01:32:33;7.30;;;6.30;;
13969;SDS011;7057;49.984;8.404;2022-07-25T01:35:00;8.47;;;6.17;;
13969;SDS011;7057;49.984;8.404;2022-07-25T01:37:30;7.60;;;6.27;;
13969;SDS011;7057;49.984;8.404;2022-07-25T01:39:57;6.80;;;6.10;;
13969;SDS011;7057;49.984;8.404;2022-07-25T01:42:24;6.53;;;5.83;;
13969;SDS011;7057;49.984;8.404;2022-07-25T01:44:52;6.67;;;5.90;;
13969;SDS011;7057;49.984;8.404;2022-07-25T01:47:19;6.53;;;5.80;;
13969;SDS011;7057;49.984;8.404;2022-07-25T01:49:47;6.67;;;5.93;;
13969;SDS011;7057;49.984;8.404;2022-07-25T01:52:14;7.20;;;6.30;;
13969;SDS011;7057;49.984;8.404;2022-07-25T01:54:42;6.83;;;5.97;;
13969;SDS011;7057;49.984;8.404;2022-07-25T01:57:10;6.83;;;5.67;;
13969;SDS011;7057;49.984;8.404;2022-07-25T01:59:37;7.37;;;5.50;;
13969;SDS011;7057;49.984;8.404;2022-07-25T02:02:05;7.20;;;6.00;;
13969;SDS011;7057;49.984;8.404;2022-07-25T02:04:33;8.90;;;5.53;;
13969;SDS011;7057;49.984;8.404;2022-07-25T02:07:01;6.47;;;5.87;;
13969;SDS011;7057;49.984;8.404;2022-07-25T02:09:29;7.03;;;6.33;;
13969;SDS011;7057;49.984;8.404;2022-07-25T02:11:57;7.70;;;6.37;;
13969;SDS011;7057;49.984;8.404;2022-07-25T02:14:25;7.27;;;5.80;;
13969;SDS011;7057;49.984;8.404;2022-07-25T02:16:52;6.50;;;5.90;;
13969;SDS011;7057;49.984;8.404;2022-07-25T02:19:19;6.73;;;5.60;;
13969;SDS011;7057;49.984;8.404;2022-07-25T02:21:46;6.90;;;6.20;;
13969;SDS011;7057;49.984;8.404;2022-07-25T02:24:13;8.27;;;6.10;;
13969;SDS011;7057;49.984;8.404;2022-07-25T02:26:40;8.43;;;6.00;;
13969;SDS011;7057;49.984;8.404;2022-07-25T02:29:09;6.30;;;5.70;;
13969;SDS011;7057;49.984;8.404;2022-07-25T02:31:36;7.17;;;6.00;;
13969;SDS011;7057;49.984;8.404;2022-07-25T02:34:03;8.57;;;6.50;;
13969;SDS011;7057;49.984;8.404;2022-07-25T02:36:30;6.57;;;5.60;;
13969;SDS011;7057;49.984;8.404;2022-07-25T02:38:57;6.90;;;6.20;;
13969;SDS011;7057;49.984;8.404;2022-07-25T02:41:24;8.27;;;6.20;;
13969;SDS011;7057;49.984;8.404;2022-07-25T02:43:52;7.00;;;6.30;;
13969;SDS011;7057;49.984;8.404;2022-07-25T02:46:20;8.90;;;6.43;;
13969;SDS011;7057;49.984;8.404;2022-07-25T02:48:47;7.07;;;6.20;;
13969;SDS011;7057;49.984;8.404;2022-07-25T02:51:14;9.63;;;6.93;;
13969;SDS011;7057;49.984;8.404;2022-07-25T02:53:43;8.37;;;6.73;;
13969;SDS011;7057;49.984;8.404;2022-07-25T02:56:10;7.73;;;6.70;;
13969;SDS011;7057;49.984;8.404;2022-07-25T02:58:37;8.73;;;6.87;;
13969;SDS011;7057;49.984;8.404;2022-07-25T03:01:04;6.87;;;6.17;;
13969;SDS011;7057;49.984;8.404;2022-07-25T03:03:32;6.83;;;6.23;;
13969;SDS011;7057;49.984;8.404;2022-07-25T03:06:00;7.70;;;6.70;;
13969;SDS011;7057;49.984;8.404;2022-07-25T03:08:27;7.73;;;6.93;;
13969;SDS011;7057;49.984;8.404;2022-07-25T03:10:54;7.70;;;6.90;;
13969;SDS011;7057;49.984;8.404;2022-07-25T03:13:21;8.67;;;7.27;;
13969;SDS011;7057;49.984;8.404;2022-07-25T03:15:48;7.70;;;6.67;;
13969;SDS011;7057;49.984;8.404;2022-07-25T03:18:15;8.33;;;7.37;;
13969;SDS011;7057;49.984;8.404;2022-07-25T03:20:44;7.70;;;6.87;;
13969;SDS011;7057;49.984;8.404;2022-07-25T03:23:11;8.13;;;7.07;;
13969;SDS011;7057;49.984;8.404;2022-07-25T03:25:38;9.73;;;6.87;;
13969;SDS011;7057;49.984;8.404;2022-07-25T03:28:05;7.80;;;7.10;;
13969;SDS011;7057;49.984;8.404;2022-07-25T03:30:32;7.37;;;6.60;;
13969;SDS011;7057;49.984;8.404;2022-07-25T03:32:59;7.37;;;6.57;;
13969;SDS011;7057;49.984;8.404;2022-07-25T03:35:26;8.60;;;7.17;;
13969;SDS011;7057;49.984;8.404;2022-07-25T03:37:55;7.17;;;6.47;;
13969;SDS011;7057;49.984;8.404;2022-07-25T03:40:22;9.33;;;7.03;;
13969;SDS011;7057;49.984;8.404;2022-07-25T03:42:49;8.87;;;6.77;;
13969;SDS011;7057;49.984;8.404;2022-07-25T03:45:16;8.83;;;6.57;;
13969;SDS011;7057;49.984;8.404;2022-07-25T03:47:43;7.13;;;6.43;;
13969;SDS011;7057;49.984;8.404;2022-07-25T03:50:10;7.67;;;6.83;;
13969;SDS011;7057;49.984;8.404;2022-07-25T03:52:37;8.63;;;7.03;;
13969;SDS011;7057;49.984;8.404;2022-07-25T03:55:06;7.90;;;7.10;;
13969;SDS011;7057;49.984;8.404;2022-07-25T03:57:34;8.17;;;6.97;;
13969;SDS011;7057;49.984;8.404;2022-07-25T04:00:02;8.27;;;6.70;;
13969;SDS011;7057;49.984;8.404;2022-07-25T04:02:31;7.67;;;6.97;;
13969;SDS011;7057;49.984;8.404;2022-07-25T04:04:58;8.00;;;6.53;;
13969;SDS011;7057;49.984;8.404;2022-07-25T04:07:25;8.90;;;7.67;;
13969;SDS011;7057;49.984;8.404;2022-07-25T04:09:52;10.93;;;7.53;;
13969;SDS011;7057;49.984;8.404;2022-07-25T04:12:21;8.90;;;7.00;;
13969;SDS011;7057;49.984;8.404;2022-07-25T04:14:48;8.03;;;7.23;;
13969;SDS011;7057;49.984;8.404;2022-07-25T04:17:15;8.40;;;7.50;;
13969;SDS011;7057;49.984;8.404;2022-07-25T04:19:43;8.13;;;7.33;;
13969;SDS011;7057;49.984;8.404;2022-07-25T04:22:10;9.03;;;7.13;;
13969;SDS011;7057;49.984;8.404;2022-07-25T04:24:37;9.07;;;7.60;;
13969;SDS011;7057;49.984;8.404;2022-07-25T04:27:04;8.90;;;8.00;;
13969;SDS011;7057;49.984;8.404;2022-07-25T04:29:32;9.53;;;7.17;;
13969;SDS011;7057;49.984;8.404;2022-07-25T04:31:59;8.27;;;7.47;;
13969;SDS011;7057;49.984;8.404;2022-07-25T04:34:27;9.67;;;7.47;;
13969;SDS011;7057;49.984;8.404;2022-07-25T04:36:54;9.10;;;7.07;;
13969;SDS011;7057;49.984;8.404;2022-07-25T04:39:21;7.57;;;6.87;;
13969;SDS011;7057;49.984;8.404;2022-07-25T04:41:48;9.10;;;7.63;;
13969;SDS011;7057;49.984;8.404;2022-07-25T04:44:15;9.97;;;7.30;;
13969;SDS011;7057;49.984;8.404;2022-07-25T04:46:44;9.90;;;7.67;;
13969;SDS011;7057;49.984;8.404;2022-07-25T04:49:11;8.77;;;7.43;;
13969;SDS011;7057;49.984;8.404;2022-07-25T04:51:38;10.23;;;7.50;;
13969;SDS011;7057;49.984;8.404;2022-07-25T04:54:05;9.40;;;7.93;;
13969;SDS011;7057;49.984;8.404;2022-07-25T04:56:33;8.50;;;7.50;;
13969;SDS011;7057;49.984;8.404;2022-07-25T04:59:00;9.20;;;7.50;;
13969;SDS011;7057;49.984;8.404;2022-07-25T05:01:27;8.20;;;7.23;;
13969;SDS011;7057;49.984;8.404;2022-07-25T05:03:56;8.50;;;7.03;;
13969;SDS011;7057;49.984;8.404;2022-07-25T05:06:23;10.53;;;7.37;;
13969;SDS011;7057;49.984;8.404;2022-07-25T05:08:50;8.03;;;7.23;;
13969;SDS011;7057;49.984;8.404;2022-07-25T05:11:17;8.80;;;7.90;;
13969;SDS011;7057;49.984;8.404;2022-07-25T05:13:44;7.77;;;6.80;;
13969;SDS011;7057;49.984;8.404;2022-07-25T05:16:11;11.03;;;7.37;;
13969;SDS011;7057;49.984;8.404;2022-07-25T05:18:38;12.93;;;7.47;;
13969;SDS011;7057;49.984;8.404;2022-07-25T05:21:09;9.83;;;7.37;;
13969;SDS011;7057;49.984;8.404;2022-07-25T05:23:37;9.00;;;7.67;;
13969;SDS011;7057;49.984;8.404;2022-07-25T05:26:04;9.90;;;7.63;;
13969;SDS011;7057;49.984;8.404;2022-07-25T05:28:32;8.63;;;7.13;;
13969;SDS011;7057;49.984;8.404;2022-07-25T05:30:59;7.53;;;6.73;;
13969;SDS011;7057;49.984;8.404;2022-07-25T05:33:26;9.23;;;6.50;;
13969;SDS011;7057;49.984;8.404;2022-07-25T05:35:53;9.50;;;7.23;;
13969;SDS011;7057;49.984;8.404;2022-07-25T05:38:22;10.27;;;7.20;;
13969;SDS011;7057;49.984;8.404;2022-07-25T05:40:49;8.73;;;7.17;;
13969;SDS011;7057;49.984;8.404;2022-07-25T05:43:16;8.10;;;6.87;;
13969;SDS011;7057;49.984;8.404;2022-07-25T05:45:44;11.07;;;7.97;;
13969;SDS011;7057;49.984;8.404;2022-07-25T05:48:12;10.20;;;7.30;;
13969;SDS011;7057;49.984;8.404;2022-07-25T05:50:39;9.00;;;7.80;;
13969;SDS011;7057;49.984;8.404;2022-07-25T05:53:06;9.83;;;7.50;;
13969;SDS011;7057;49.984;8.404;2022-07-25T05:55:35;9.50;;;7.57;;
13969;SDS011;7057;49.984;8.404;2022-07-25T05:58:02;8.33;;;7.53;;
13969;SDS011;7057;49.984;8.404;2022-07-25T06:00:29;9.07;;;7.17;;
13969;SDS011;7057;49.984;8.404;2022-07-25T06:02:56;8.70;;;7.80;;
13969;SDS011;7057;49.984;8.404;2022-07-25T06:05:25;8.97;;;7.40;;
13969;SDS011;7057;49.984;8.404;2022-07-25T06:07:52;8.87;;;7.33;;
13969;SDS011;7057;49.984;8.404;2022-07-25T06:10:20;9.47;;;7.80;;
13969;SDS011;7057;49.984;8.404;2022-07-25T06:12:49;9.27;;;7.60;;
13969;SDS011;7057;49.984;8.404;2022-07-25T06:15:16;9.20;;;8.18;;
13969;SDS011;7057;49.984;8.404;2022-07-25T06:17:43;8.67;;;7.77;;
13969;SDS011;7057;49.984;8.404;2022-07-25T06:20:10;9.27;;;7.63;;
13969;SDS011;7057;49.984;8.404;2022-07-25T06:22:38;9.30;;;8.30;;
13969;SDS011;7057;49.984;8.404;2022-07-25T06:25:06;9.67;;;8.10;;
13969;SDS011;7057;49.984;8.404;2022-07-25T06:27:33;8.73;;;7.80;;
13969;SDS011;7057;49.984;8.404;2022-07-25T06:30:04;8.97;;;7.90;;
13969;SDS011;7057;49.984;8.404;2022-07-25T06:32:32;7.90;;;7.20;;
13969;SDS011;7057;49.984;8.404;2022-07-25T06:34:59;8.67;;;7.53;;
13969;SDS011;7057;49.984;8.404;2022-07-25T06:37:27;10.37;;;8.00;;
13969;SDS011;7057;49.984;8.404;2022-07-25T06:39:54;10.60;;;7.77;;
13969;SDS011;7057;49.984;8.404;2022-07-25T06:42:21;9.80;;;8.03;;
13969;SDS011;7057;49.984;8.404;2022-07-25T06:44:48;9.07;;;7.30;;
13969;SDS011;7057;49.984;8.404;2022-07-25T06:47:17;9.20;;;7.67;;
13969;SDS011;7057;49.984;8.404;2022-07-25T06:49:44;10.50;;;8.53;;
13969;SDS011;7057;49.984;8.404;2022-07-25T06:52:11;9.83;;;7.60;;
13969;SDS011;7057;49.984;8.404;2022-07-25T06:54:38;8.40;;;7.50;;
13969;SDS011;7057;49.984;8.404;2022-07-25T06:57:05;10.20;;;7.80;;
13969;SDS011;7057;49.984;8.404;2022-07-25T06:59:33;10.40;;;7.83;;
13969;SDS011;7057;49.984;8.404;2022-07-25T07:02:00;11.37;;;8.30;;
13969;SDS011;7057;49.984;8.404;2022-07-25T07:04:29;14.63;;;8.03;;
13969;SDS011;7057;49.984;8.404;2022-07-25T07:06:56;11.20;;;7.43;;
13969;SDS011;7057;49.984;8.404;2022-07-25T07:09:23;9.23;;;7.87;;
13969;SDS011;7057;49.984;8.404;2022-07-25T07:11:50;8.27;;;7.43;;
13969;SDS011;7057;49.984;8.404;2022-07-25T07:14:17;9.50;;;8.47;;
13969;SDS011;7057;49.984;8.404;2022-07-25T07:16:44;9.73;;;7.60;;
13969;SDS011;7057;49.984;8.404;2022-07-25T07:19:11;8.27;;;7.43;;
13969;SDS011;7057;49.984;8.404;2022-07-25T07:21:40;9.30;;;7.30;;
13969;SDS011;7057;49.984;8.404;2022-07-25T07:24:07;8.97;;;7.83;;
13969;SDS011;7057;49.984;8.404;2022-07-25T07:26:35;10.00;;;7.97;;
13969;SDS011;7057;49.984;8.404;2022-07-25T07:29:02;12.97;;;9.67;;
13969;SDS011;7057;49.984;8.404;2022-07-25T07:31:29;11.57;;;9.00;;
13969;SDS011;7057;49.984;8.404;2022-07-25T07:33:56;10.73;;;9.03;;
13969;SDS011;7057;49.984;8.404;2022-07-25T07:36:24;12.47;;;8.90;;
13969;SDS011;7057;49.984;8.404;2022-07-25T07:38:52;11.57;;;9.57;;
13969;SDS011;7057;49.984;8.404;2022-07-25T07:41:19;10.90;;;9.83;;
13969;SDS011;7057;49.984;8.404;2022-07-25T07:43:47;12.47;;;9.43;;
13969;SDS011;7057;49.984;8.404;2022-07-25T07:46:14;10.20;;;9.00;;
13969;SDS011;7057;49.984;8.404;2022-07-25T07:48:41;9.37;;;8.20;;
13969;SDS011;7057;49.984;8.404;2022-07-25T07:51:08;12.00;;;8.70;;
13969;SDS011;7057;49.984;8.404;2022-07-25T07:53:35;12.80;;;8.87;;
13969;SDS011;7057;49.984;8.404;2022-07-25T07:56:22;10.97;;;8.57;;
13969;SDS011;7057;49.984;8.404;2022-07-25T07:58:49;11.30;;;9.10;;
13969;SDS011;7057;49.984;8.404;2022-07-25T08:01:16;12.13;;;9.03;;
13969;SDS011;7057;49.984;8.404;2022-07-25T08:03:43;10.67;;;8.73;;
13969;SDS011;7057;49.984;8.404;2022-07-25T08:06:10;10.20;;;8.60;;
13969;SDS011;7057;49.984;8.404;2022-07-25T08:08:38;9.53;;;8.40;;
13969;SDS011;7057;49.984;8.404;2022-07-25T08:11:05;22.50;;;13.33;;
13969;SDS011;7057;49.984;8.404;2022-07-25T08:13:33;13.13;;;9.37;;
13969;SDS011;7057;49.984;8.404;2022-07-25T08:16:02;12.93;;;10.30;;
13969;SDS011;7057;49.984;8.404;2022-07-25T08:18:31;9.60;;;8.53;;
13969;SDS011;7057;49.984;8.404;2022-07-25T08:20:58;9.83;;;8.70;;
13969;SDS011;7057;49.984;8.404;2022-07-25T08:23:27;35.23;;;16.60;;
13969;SDS011;7057;49.984;8.404;2022-07-25T08:25:56;14.23;;;10.00;;
13969;SDS011;7057;49.984;8.404;2022-07-25T08:28:23;11.07;;;8.63;;
13969;SDS011;7057;49.984;8.404;2022-07-25T08:30:52;9.43;;;8.53;;
13969;SDS011;7057;49.984;8.404;2022-07-25T08:33:19;14.93;;;10.80;;
13969;SDS011;7057;49.984;8.404;2022-07-25T08:35:46;54.57;;;25.30;;
13969;SDS011;7057;49.984;8.404;2022-07-25T08:38:16;10.33;;;9.23;;
13969;SDS011;7057;49.984;8.404;2022-07-25T08:40:43;11.43;;;10.30;;
13969;SDS011;7057;49.984;8.404;2022-07-25T08:43:11;48.90;;;21.60;;
13969;SDS011;7057;49.984;8.404;2022-07-25T08:45:40;52.13;;;27.87;;
13969;SDS011;7057;49.984;8.404;2022-07-25T08:48:11;35.40;;;16.93;;
13969;SDS011;7057;49.984;8.404;2022-07-25T08:50:39;9.90;;;8.13;;
13969;SDS011;7057;49.984;8.404;2022-07-25T08:53:06;8.57;;;7.73;;
13969;SDS011;7057;49.984;8.404;2022-07-25T08:55:33;62.60;;;30.33;;
13969;SDS011;7057;49.984;8.404;2022-07-25T08:58:01;56.13;;;24.53;;
13969;SDS011;7057;49.984;8.404;2022-07-25T09:00:28;112.23;;;44.03;;
13969;SDS011;7057;49.984;8.404;2022-07-25T09:02:56;25.73;;;14.47;;
13969;SDS011;7057;49.984;8.404;2022-07-25T09:05:26;27.90;;;13.30;;
13969;SDS011;7057;49.984;8.404;2022-07-25T09:07:54;28.63;;;15.67;;
13969;SDS011;7057;49.984;8.404;2022-07-25T09:10:22;9.07;;;8.17;;
13969;SDS011;7057;49.984;8.404;2022-07-25T09:12:51;8.93;;;8.13;;
13969;SDS011;7057;49.984;8.404;2022-07-25T09:15:23;9.13;;;7.03;;
13969;SDS011;7057;49.984;8.404;2022-07-25T09:17:55;11.23;;;8.60;;
13969;SDS011;7057;49.984;8.404;2022-07-25T09:20:23;10.40;;;8.83;;
13969;SDS011;7057;49.984;8.404;2022-07-25T09:23:02;10.10;;;8.52;;
13969;SDS011;7057;49.984;8.404;2022-07-25T09:25:29;12.10;;;9.57;;
13969;SDS011;7057;49.984;8.404;2022-07-25T09:28:07;8.97;;;8.07;;
13969;SDS011;7057;49.984;8.404;2022-07-25T09:30:38;56.90;;;20.33;;
13969;SDS011;7057;49.984;8.404;2022-07-25T09:33:06;39.00;;;17.83;;
13969;SDS011;7057;49.984;8.404;2022-07-25T09:35:33;36.63;;;16.87;;
13969;SDS011;7057;49.984;8.404;2022-07-25T09:38:08;41.30;;;17.93;;
13969;SDS011;7057;49.984;8.404;2022-07-25T09:40:36;10.40;;;9.17;;
13969;SDS011;7057;49.984;8.404;2022-07-25T09:43:03;9.53;;;8.53;;
13969;SDS011;7057;49.984;8.404;2022-07-25T09:45:30;10.23;;;9.10;;
13969;SDS011;7057;49.984;8.404;2022-07-25T09:47:58;10.97;;;7.93;;
13969;SDS011;7057;49.984;8.404;2022-07-25T09:50:27;9.80;;;8.70;;
13969;SDS011;7057;49.984;8.404;2022-07-25T09:52:58;8.50;;;7.70;;
13969;SDS011;7057;49.984;8.404;2022-07-25T09:55:28;9.63;;;8.70;;
13969;SDS011;7057;49.984;8.404;2022-07-25T09:57:56;9.13;;;8.20;;
13969;SDS011;7057;49.984;8.404;2022-07-25T10:00:24;9.93;;;7.73;;
13969;SDS011;7057;49.984;8.404;2022-07-25T10:03:04;9.20;;;7.90;;
13969;SDS011;7057;49.984;8.404;2022-07-25T10:05:53;8.40;;;7.70;;
13969;SDS011;7057;49.984;8.404;2022-07-25T10:08:34;9.33;;;7.90;;
13969;SDS011;7057;49.984;8.404;2022-07-25T10:11:03;8.67;;;7.77;;
13969;SDS011;7057;49.984;8.404;2022-07-25T10:13:31;9.03;;;7.57;;
13969;SDS011;7057;49.984;8.404;2022-07-25T10:15:59;7.73;;;7.10;;
13969;SDS011;7057;49.984;8.404;2022-07-25T10:18:28;7.60;;;6.73;;
13969;SDS011;7057;49.984;8.404;2022-07-25T10:21:06;8.70;;;7.17;;
13969;SDS011;7057;49.984;8.404;2022-07-25T10:23:35;8.97;;;7.60;;
13969;SDS011;7057;49.984;8.404;2022-07-25T10:26:06;8.20;;;7.33;;
13969;SDS011;7057;49.984;8.404;2022-07-25T10:28:35;10.33;;;8.10;;
13969;SDS011;7057;49.984;8.404;2022-07-25T10:31:13;7.63;;;6.93;;
13969;SDS011;7057;49.984;8.404;2022-07-25T10:33:41;10.63;;;7.50;;
13969;SDS011;7057;49.984;8.404;2022-07-25T10:36:09;8.63;;;7.47;;
13969;SDS011;7057;49.984;8.404;2022-07-25T10:38:37;9.63;;;7.23;;
13969;SDS011;7057;49.984;8.404;2022-07-25T10:41:06;8.67;;;7.67;;
13969;SDS011;7057;49.984;8.404;2022-07-25T10:43:37;8.13;;;7.33;;
13969;SDS011;7057;49.984;8.404;2022-07-25T10:46:09;7.63;;;6.73;;
13969;SDS011;7057;49.984;8.404;2022-07-25T10:48:38;8.77;;;6.90;;
13969;SDS011;7057;49.984;8.404;2022-07-25T10:51:07;8.13;;;7.33;;
13969;SDS011;7057;49.984;8.404;2022-07-25T10:53:35;8.00;;;7.20;;
13969;SDS011;7057;49.984;8.404;2022-07-25T10:56:05;7.53;;;6.83;;
13969;SDS011;7057;49.984;8.404;2022-07-25T10:58:45;8.57;;;7.53;;
13969;SDS011;7057;49.984;8.404;2022-07-25T11:01:18;7.90;;;7.10;;
13969;SDS011;7057;49.984;8.404;2022-07-25T11:03:47;8.43;;;7.53;;
13969;SDS011;7057;49.984;8.404;2022-07-25T11:06:14;8.60;;;7.70;;
13969;SDS011;7057;49.984;8.404;2022-07-25T11:08:43;8.07;;;7.27;;
13969;SDS011;7057;49.984;8.404;2022-07-25T11:11:12;8.50;;;7.60;;
13969;SDS011;7057;49.984;8.404;2022-07-25T11:13:39;8.23;;;6.63;;
13969;SDS011;7057;49.984;8.404;2022-07-25T11:16:08;7.90;;;6.80;;
13969;SDS011;7057;49.984;8.404;2022-07-25T11:18:37;7.90;;;7.17;;
13969;SDS011;7057;49.984;8.404;2022-07-25T11:21:07;7.60;;;6.90;;
13969;SDS011;7057;49.984;8.404;2022-07-25T11:23:34;7.07;;;6.37;;
13969;SDS011;7057;49.984;8.404;2022-07-25T11:26:08;7.07;;;6.17;;
13969;SDS011;7057;49.984;8.404;2022-07-25T11:28:42;7.03;;;5.57;;
13969;SDS011;7057;49.984;8.404;2022-07-25T11:31:11;6.00;;;5.27;;
13969;SDS011;7057;49.984;8.404;2022-07-25T11:33:40;5.90;;;4.83;;
13969;SDS011;7057;49.984;8.404;2022-07-25T11:36:09;5.43;;;4.53;;
13969;SDS011;7057;49.984;8.404;2022-07-25T11:38:37;5.93;;;4.57;;
13969;SDS011;7057;49.984;8.404;2022-07-25T11:41:05;4.87;;;3.60;;
13969;SDS011;7057;49.984;8.404;2022-07-25T11:43:33;9.00;;;4.90;;
13969;SDS011;7057;49.984;8.404;2022-07-25T11:46:02;6.07;;;4.43;;
13969;SDS011;7057;49.984;8.404;2022-07-25T11:48:34;5.00;;;4.23;;
13969;SDS011;7057;49.984;8.404;2022-07-25T11:51:11;7.03;;;4.50;;
13969;SDS011;7057;49.984;8.404;2022-07-25T11:53:40;4.97;;;4.57;;
13969;SDS011;7057;49.984;8.404;2022-07-25T11:56:12;6.33;;;4.50;;
13969;SDS011;7057;49.984;8.404;2022-07-25T11:58:40;4.50;;;4.10;;
13969;SDS011;7057;49.984;8.404;2022-07-25T12:01:13;6.27;;;4.37;;
13969;SDS011;7057;49.984;8.404;2022-07-25T12:03:40;6.73;;;4.90;;
13969;SDS011;7057;49.984;8.404;2022-07-25T12:06:10;4.40;;;4.07;;
13969;SDS011;7057;49.984;8.404;2022-07-25T12:08:38;4.77;;;4.37;;
13969;SDS011;7057;49.984;8.404;2022-07-25T12:11:17;5.27;;;4.50;;
13969;SDS011;7057;49.984;8.404;2022-07-25T12:13:45;7.47;;;4.50;;
13969;SDS011;7057;49.984;8.404;2022-07-25T12:16:14;4.90;;;4.50;;
13969;SDS011;7057;49.984;8.404;2022-07-25T12:18:42;5.63;;;4.97;;
13969;SDS011;7057;49.984;8.404;2022-07-25T12:21:09;5.77;;;4.37;;
13969;SDS011;7057;49.984;8.404;2022-07-25T12:23:36;5.17;;;4.70;;
13969;SDS011;7057;49.984;8.404;2022-07-25T12:26:06;5.07;;;4.57;;
13969;SDS011;7057;49.984;8.404;2022-07-25T12:28:34;5.00;;;4.53;;
13969;SDS011;7057;49.984;8.404;2022-07-25T12:31:01;5.60;;;4.57;;
13969;SDS011;7057;49.984;8.404;2022-07-25T12:33:30;4.80;;;4.33;;
13969;SDS011;7057;49.984;8.404;2022-07-25T12:35:58;5.80;;;4.70;;
13969;SDS011;7057;49.984;8.404;2022-07-25T12:38:25;5.13;;;4.63;;
13969;SDS011;7057;49.984;8.404;2022-07-25T12:40:53;5.37;;;4.87;;
13969;SDS011;7057;49.984;8.404;2022-07-25T12:43:20;7.07;;;4.73;;
13969;SDS011;7057;49.984;8.404;2022-07-25T12:45:48;4.90;;;4.47;;
13969;SDS011;7057;49.984;8.404;2022-07-25T12:48:15;6.23;;;4.97;;
13969;SDS011;7057;49.984;8.404;2022-07-25T12:50:43;6.00;;;5.07;;
13969;SDS011;7057;49.984;8.404;2022-07-25T12:53:11;6.07;;;4.93;;
13969;SDS011;7057;49.984;8.404;2022-07-25T12:55:39;5.80;;;5.30;;
13969;SDS011;7057;49.984;8.404;2022-07-25T12:58:06;5.13;;;4.37;;
13969;SDS011;7057;49.984;8.404;2022-07-25T13:00:34;5.20;;;4.70;;
13969;SDS011;7057;49.984;8.404;2022-07-25T13:03:01;5.30;;;4.40;;
13969;SDS011;7057;49.984;8.404;2022-07-25T13:05:28;5.87;;;5.00;;
13969;SDS011;7057;49.984;8.404;2022-07-25T13:07:57;5.57;;;5.07;;
13969;SDS011;7057;49.984;8.404;2022-07-25T13:10:24;6.37;;;4.83;;
13969;SDS011;7057;49.984;8.404;2022-07-25T13:12:51;6.20;;;4.80;;
13969;SDS011;7057;49.984;8.404;2022-07-25T13:15:18;5.70;;;4.87;;
13969;SDS011;7057;49.984;8.404;2022-07-25T13:17:47;6.70;;;4.70;;
13969;SDS011;7057;49.984;8.404;2022-07-25T13:20:15;7.13;;;5.17;;
13969;SDS011;7057;49.984;8.404;2022-07-25T13:22:42;6.03;;;5.00;;
13969;SDS011;7057;49.984;8.404;2022-07-25T13:25:11;4.97;;;4.27;;
13969;SDS011;7057;49.984;8.404;2022-07-25T13:27:38;5.20;;;4.63;;
13969;SDS011;7057;49.984;8.404;2022-07-25T13:30:06;5.60;;;4.57;;
13969;SDS011;7057;49.984;8.404;2022-07-25T13:32:33;6.63;;;4.57;;
13969;SDS011;7057;49.984;8.404;2022-07-25T13:35:01;4.87;;;4.43;;
13969;SDS011;7057;49.984;8.404;2022-07-25T13:37:28;5.17;;;4.73;;
13969;SDS011;7057;49.984;8.404;2022-07-25T13:39:57;5.00;;;4.50;;
13969;SDS011;7057;49.984;8.404;2022-07-25T13:42:25;5.17;;;4.27;;
13969;SDS011;7057;49.984;8.404;2022-07-25T13:44:52;5.13;;;4.63;;
13969;SDS011;7057;49.984;8.404;2022-07-25T13:47:19;5.43;;;4.57;;
13969;SDS011;7057;49.984;8.404;2022-07-25T13:49:47;5.97;;;5.37;;
13969;SDS011;7057;49.984;8.404;2022-07-25T13:52:14;5.80;;;4.93;;
13969;SDS011;7057;49.984;8.404;2022-07-25T13:54:41;5.37;;;4.87;;
13969;SDS011;7057;49.984;8.404;2022-07-25T13:57:08;6.37;;;5.17;;
13969;SDS011;7057;49.984;8.404;2022-07-25T13:59:37;6.13;;;4.60;;
13969;SDS011;7057;49.984;8.404;2022-07-25T14:02:04;6.97;;;5.40;;
13969;SDS011;7057;49.984;8.404;2022-07-25T14:04:31;6.10;;;5.53;;
13969;SDS011;7057;49.984;8.404;2022-07-25T14:06:58;6.30;;;5.10;;
13969;SDS011;7057;49.984;8.404;2022-07-25T14:09:26;5.17;;;4.67;;
13969;SDS011;7057;49.984;8.404;2022-07-25T14:11:53;5.53;;;5.03;;
13969;SDS011;7057;49.984;8.404;2022-07-25T14:14:20;5.83;;;5.23;;
13969;SDS011;7057;49.984;8.404;2022-07-25T14:16:48;5.77;;;4.83;;
13969;SDS011;7057;49.984;8.404;2022-07-25T14:19:16;7.60;;;5.10;;
13969;SDS011;7057;49.984;8.404;2022-07-25T14:21:43;6.73;;;6.10;;
13969;SDS011;7057;49.984;8.404;2022-07-25T14:24:10;6.57;;;5.90;;
13969;SDS011;7057;49.984;8.404;2022-07-25T14:26:37;6.00;;;5.40;;
13969;SDS011;7057;49.984;8.404;2022-07-25T14:29:04;6.23;;;5.63;;
13969;SDS011;7057;49.984;8.404;2022-07-25T14:31:36;6.43;;;5.83;;
13969;SDS011;7057;49.984;8.404;2022-07-25T14:34:05;6.10;;;5.37;;
13969;SDS011;7057;49.984;8.404;2022-07-25T14:36:33;7.87;;;5.43;;
13969;SDS011;7057;49.984;8.404;2022-07-25T14:39:01;6.40;;;5.77;;
13969;SDS011;7057;49.984;8.404;2022-07-25T14:41:29;6.50;;;5.40;;
13969;SDS011;7057;49.984;8.404;2022-07-25T14:43:56;6.40;;;5.73;;
13969;SDS011;7057;49.984;8.404;2022-07-25T14:46:23;5.40;;;4.90;;
13969;SDS011;7057;49.984;8.404;2022-07-25T14:48:51;5.73;;;5.20;;
13969;SDS011;7057;49.984;8.404;2022-07-25T14:51:19;6.80;;;5.27;;
13969;SDS011;7057;49.984;8.404;2022-07-25T14:53:46;5.90;;;5.37;;
13969;SDS011;7057;49.984;8.404;2022-07-25T14:56:14;9.23;;;5.27;;
13969;SDS011;7057;49.984;8.404;2022-07-25T14:58:42;6.10;;;5.50;;
13969;SDS011;7057;49.984;8.404;2022-07-25T15:01:09;5.80;;;5.20;;
13969;SDS011;7057;49.984;8.404;2022-07-25T15:03:37;5.90;;;5.40;;